ADDS METAR Data INFO
IDs: Format: Raw Decoded Include TAF

Data at: 0714 UTC 24 Jun 2018

KPMV 240655Z AUTO 14005KT 10SM BKN070 BKN090 21/19 A2980 RMK AO2 LTG DSNT W T02130191
KPMV 240635Z AUTO 14007KT 10SM BKN090 21/19 A2978 RMK AO2 LTG DSNT W T02120191
KPMV 240615Z AUTO 15006KT 10SM BKN080 22/19 A2979 RMK AO2 LTG DSNT W T02160191
KPMV 240555Z AUTO 13006KT 10SM CLR 21/19 A2979 RMK AO2 LTG DSNT W T02140192 10262 20211 402650157
KPMV 240535Z AUTO 12005KT 10SM CLR 22/19 A2979 RMK AO2 T02150192
KPMV 240515Z AUTO 13006KT 10SM CLR 22/19 A2979 RMK AO2 LTG DSNT W T02150193
KPMV 240455Z AUTO 12005KT 10SM CLR 22/19 A2980 RMK AO2 LTG DSNT W T02150193
KPMV 240435Z AUTO 12005KT 10SM CLR 21/19 A2979 RMK AO2 T02140194
KPMV 240415Z AUTO 11006KT 10SM CLR 21/20 A2979 RMK AO2 T02130195
KPMV 240355Z AUTO 13006KT 10SM CLR 22/20 A2979 RMK AO2 T02160195
KPMV 240335Z AUTO 11004KT 10SM CLR 22/20 A2979 RMK AO2 T02200197
KPMV 240315Z AUTO 12006KT 10SM CLR 23/20 A2978 RMK AO2 T02250196
KPMV 240255Z AUTO 13005KT 10SM CLR 23/20 A2978 RMK AO2 T02250200
KPMV 240235Z AUTO 13006KT 10SM CLR 23/20 A2978 RMK AO2 T02250201
KPMV 240215Z AUTO 12005KT 10SM CLR 23/20 A2977 RMK AO2 T02290203
KPMV 240155Z AUTO 13006KT 10SM SCT120 23/20 A2977 RMK AO2 T02320203
KPMV 240135Z AUTO 13006KT 10SM SCT120 24/21 A2976 RMK AO2 T02360205
KPMV 240115Z AUTO 13005KT 10SM CLR 25/20 A2976 RMK AO2 T02450204
KPMV 240055Z AUTO 14005KT 10SM CLR 25/21 A2976 RMK AO2 LTG DSNT NW T02510205
KPMV 240035Z AUTO 12004KT 10SM CLR 26/21 A2976 RMK AO2 T02550206
KPMV 240015Z AUTO 13007KT 10SM CLR 26/21 A2975 RMK AO2 T02580206
KPMV 232355Z AUTO 13008KT 10SM CLR 26/21 A2974 RMK AO2 T02620210 10265 20209
KPMV 232335Z AUTO 15006KT 10SM CLR 26/21 A2975 RMK AO2 T02610209
KPMV 232315Z AUTO 14005KT 10SM CLR 27/21 A2976 RMK AO2 T02650211
KPMV 232255Z AUTO 15005KT 10SM SCT048 SCT060 26/21 A2976 RMK AO2 T02570205
KPMV 232235Z AUTO 16006KT 10SM CLR 27/21 A2976 RMK AO2 T02650208
KPMV 232215Z AUTO 14007KT 10SM CLR 26/21 A2976 RMK AO2 T02600205
KPMV 232155Z AUTO 14007KT 10SM CLR 26/21 A2977 RMK AO2 T02560206
KPMV 232135Z AUTO 12004KT 10SM SCT026 SCT037 26/20 A2977 RMK AO2 T02570201
KPMV 232115Z AUTO 17005KT 10SM SCT026 SCT036 26/20 A2977 RMK AO2 T02550203
KPMV 232055Z AUTO 16005KT 10SM SCT021 SCT038 25/21 A2978 RMK AO2 T02540205
KPMV 232035Z AUTO 15008KT 10SM SCT024 25/20 A2978 RMK AO2 T02490202
KPMV 232015Z AUTO 13005KT 10SM SCT023 25/20 A2979 RMK AO2 T02460201
KPMV 231955Z AUTO 16007KT 10SM SCT019 SCT026 25/20 A2979 RMK AO2 T02450201
KPMV 231935Z AUTO 14005KT 10SM SCT017 24/20 A2979 RMK AO2 T02360195
KPMV 231915Z AUTO 14005KT 10SM BKN017 23/19 A2979 RMK AO2 T02260187
KPMV 231855Z AUTO 14006KT 10SM BKN017 23/19 A2980 RMK AO2 T02260186
KPMV 231835Z AUTO 14006KT 10SM BKN015 BKN021 23/19 A2981 RMK AO2 T02280192
KPMV 231815Z AUTO 16005KT 10SM BKN015 BKN021 21/18 A2981 RMK AO2 T02110184
KPMV 231755Z AUTO 16005KT 10SM SCT013 SCT019 21/18 A2981 RMK AO2 60001 T02080182 10209 20160
KPMV 231735Z AUTO 17006KT 10SM BKN010 21/18 A2982 RMK AO2 T02060183
KPMV 231715Z AUTO 17006KT 10SM BKN010 BKN015 BKN120 21/19 A2982 RMK AO2 T02050186
KPMV 231655Z AUTO 16004KT 10SM SCT010 OVC120 20/19 A2981 RMK AO2 P0001 T02030185
KPMV 231635Z AUTO 18004KT 10SM SCT041 SCT100 OVC120 20/18 A2982 RMK AO2 P0001 T01980180
KPMV 231615Z AUTO 19004KT 10SM -RA SCT033 SCT050 BKN065 20/18 A2982 RMK AO2 P0001 T01970183
KPMV 231555Z AUTO 19004KT 5SM RA SCT009 BKN075 OVC110 20/18 A2982 RMK AO2 T01950181
KPMV 231535Z AUTO 19004KT 7SM RA SCT010 SCT031 OVC110 20/18 A2983 RMK AO2 T01950180
KPMV 231515Z AUTO 19003KT 10SM SCT010 SCT031 BKN120 20/18 A2982 RMK AO2 T01960179
KPMV 231455Z AUTO 21003KT 10SM SCT120 20/18 A2982 RMK AO2 T02000181
KPMV 231435Z AUTO 17004KT 10SM BKN120 20/18 A2982 RMK AO2 T02000181
KPMV 231415Z AUTO 17003KT 10SM OVC120 20/18 A2982 RMK AO2 T01980180
KPMV 231355Z AUTO 18004KT 10SM SCT120 20/18 A2981 RMK AO2 T01980180
KPMV 231335Z AUTO 00000KT 7SM SCT055 20/18 A2982 RMK AO2 T01950182
KPMV 231315Z AUTO 00000KT 5SM BR SCT055 19/18 A2982 RMK AO2 T01910180
KPMV 231255Z AUTO 00000KT 4SM BR CLR 19/18 A2982 RMK AO2 T01860181
KPMV 231235Z AUTO 00000KT 3SM BR CLR 18/18 A2981 RMK AO2 T01770177
KPMV 231215Z AUTO 00000KT 2SM BR CLR 17/17 A2980 RMK AO2 T01650165
KPMV 231155Z AUTO 00000KT 2SM BR CLR 16/16 A2979 RMK AO2 T01600160 10176 20157
KPMV 231135Z AUTO 00000KT 1 3/4SM BR VV007 16/16 A2979 RMK AO2 T01580157
KPMV 231115Z AUTO 07003KT 1 3/4SM BR VV007 16/16 A2979 RMK AO2 T01570156
KPMV 231055Z AUTO 00000KT 3SM BR CLR 16/16 A2980 RMK AO2 T01570156
KPMV 231035Z AUTO 00000KT 3SM BR CLR 16/16 A2981 RMK AO2 T01580157
KPMV 231015Z AUTO 29004KT 3SM BR CLR 16/16 A2981 RMK AO2 T01590157
KPMV 230955Z AUTO 27004KT 4SM BR CLR 16/16 A2979 RMK AO2 T01590158
KPMV 230935Z AUTO 00000KT 4SM BR CLR 16/16 A2979 RMK AO2 T01590157
KPMV 230915Z AUTO 00000KT 5SM BR CLR 16/16 A2979 RMK AO2 T01600158
KPMV 230855Z AUTO 26004KT 4SM BR CLR 16/16 A2982 RMK AO2 T01600159
KPMV 230835Z AUTO 26004KT 3SM BR CLR 16/16 A2982 RMK AO2 T01570155
KPMV 230815Z AUTO 00000KT 5SM BR CLR 16/16 A2980 RMK AO2 T01640162
KPMV 230755Z AUTO 00000KT 4SM BR CLR 16/16 A2981 RMK AO2 T01600160
KPMV 230735Z AUTO 28004KT 5SM BR CLR 16/16 A2982 RMK AO2 T01620161
KPMV 230715Z AUTO 00000KT 4SM BR SCT002 16/16 A2982 RMK AO2 T01600158
KPMV 230655Z AUTO 00000KT 2SM BR SCT002 16/15 A2981 RMK AO2 T01570153
KPMV 230635Z AUTO 00000KT 7SM CLR 17/16 A2981 RMK AO2 LTG DSNT W T01700164
KPMV 230615Z AUTO 00000KT 7SM CLR 17/16 A2981 RMK AO2 LTG DSNT W T01700161
KPMV 230555Z AUTO 00000KT 10SM CLR 18/17 A2982 RMK AO2 LTG DSNT W T01750166 10225 20175 402280158
KPMV 230535Z AUTO 00000KT 10SM CLR 18/17 A2983 RMK AO2 T01770167
KPMV 230515Z AUTO 00000KT 10SM SCT044 18/17 A2983 RMK AO2 T01780165
KPMV 230455Z AUTO 25003KT 10SM BKN028 BKN034 BKN044 18/17 A2984 RMK AO2 T01830168
KPMV 230435Z AUTO 24003KT 10SM BKN028 BKN048 18/17 A2984 RMK AO2 T01830169
KPMV 230415Z AUTO 24005KT 10SM CLR 18/16 A2984 RMK AO2 T01780162
KPMV 230355Z AUTO 22003KT 10SM CLR 18/16 A2984 RMK AO2 T01770163
KPMV 230335Z AUTO 00000KT 10SM CLR 19/16 A2983 RMK AO2 T01890163
KPMV 230315Z AUTO 00000KT 10SM CLR 19/17 A2983 RMK AO2 T01850167
KPMV 230255Z AUTO 00000KT 10SM CLR 19/17 A2981 RMK AO2 T01920167
KPMV 230235Z AUTO 00000KT 10SM CLR 20/17 A2979 RMK AO2 T01980170
KPMV 230215Z AUTO 00000KT 10SM SCT050 20/17 A2979 RMK AO2 T02000170
KPMV 230155Z AUTO 00000KT 10SM SCT050 20/18 A2979 RMK AO2 T02040178
KPMV 230135Z AUTO 00000KT 10SM SCT032 BKN050 21/17 A2979 RMK AO2 T02110174
KPMV 230115Z AUTO 00000KT 10SM SCT032 BKN038 OVC050 22/17 A2982 RMK AO2 T02150173
KPMV 230055Z AUTO 00000KT 10SM SCT038 OVC055 22/17 A2983 RMK AO2 T02160170
KPMV 230035Z AUTO 00000KT 10SM BKN055 22/16 A2983 RMK AO2 T02180162
KPMV 230015Z AUTO 00000KT 10SM SCT050 22/17 A2982 RMK AO2 T02240166
KPMV 222355Z AUTO 00000KT 10SM BKN048 23/17 A2981 RMK AO2 T02250170 10228 20185
KPMV 222335Z AUTO 00000KT 10SM OVC046 22/17 A2982 RMK AO2 T02190168
KPMV 222315Z AUTO 35003KT 10SM SCT025 SCT038 OVC044 22/17 A2982 RMK AO2 T02190168
KPMV 222255Z AUTO 00000KT 10SM SCT027 OVC042 22/17 A2983 RMK AO2 T02230167
KPMV 222235Z AUTO 00000KT 10SM SCT025 BKN030 BKN042 22/17 A2983 RMK AO2 T02240170
KPMV 222215Z AUTO 00000KT 10SM SCT030 SCT034 SCT041 23/17 A2984 RMK AO2 T02260170
KPMV 222155Z AUTO 00000KT 10SM OVC037 22/16 A2985 RMK AO2 T02150164
KPMV 222135Z AUTO 00000KT 10SM SCT022 SCT027 OVC039 22/16 A2986 RMK AO2 T02150161
KPMV 222115Z AUTO 00000KT 10SM BKN022 BKN027 21/17 A2986 RMK AO2 T02120168
KPMV 222055Z AUTO 00000KT 10SM SCT020 BKN035 22/17 A2986 RMK AO2 T02170168
KPMV 222035Z AUTO 08005KT 10SM SCT018 BKN023 OVC033 21/17 A2986 RMK AO2 T02070169
KPMV 222015Z AUTO 06005KT 10SM SCT018 BKN027 OVC036 21/17 A2986 RMK AO2 T02130168
KPMV 221955Z AUTO 04006KT 10SM BKN019 OVC025 21/17 A2987 RMK AO2 T02070167
KPMV 221935Z AUTO 03005KT 10SM BKN017 OVC024 19/17 A2988 RMK AO2 T01940168
KPMV 221915Z AUTO 36004KT 10SM SCT017 OVC027 20/17 A2989 RMK AO2 T01980168